sensor_id;sensor_type;location;lat;lon;timestamp;P1;durP1;ratioP1;P2;durP2;ratioP2
49458;SDS011;35354;51.296;16.924;2022-09-17T00:01:51;8.88;;;5.57;;
49458;SDS011;35354;51.296;16.924;2022-09-17T00:04:17;5.63;;;4.53;;
49458;SDS011;35354;51.296;16.924;2022-09-17T00:06:42;4.10;;;3.70;;
49458;SDS011;35354;51.296;16.924;2022-09-17T00:09:08;7.22;;;3.72;;
49458;SDS011;35354;51.296;16.924;2022-09-17T00:11:34;10.43;;;3.65;;
49458;SDS011;35354;51.296;16.924;2022-09-17T00:14:02;5.32;;;3.75;;
49458;SDS011;35354;51.296;16.924;2022-09-17T00:18:54;4.22;;;3.47;;
49458;SDS011;35354;51.296;16.924;2022-09-17T00:21:20;6.80;;;4.07;;
49458;SDS011;35354;51.296;16.924;2022-09-17T00:23:45;5.10;;;3.83;;
49458;SDS011;35354;51.296;16.924;2022-09-17T00:26:11;4.55;;;3.50;;
49458;SDS011;35354;51.296;16.924;2022-09-17T00:28:36;6.43;;;3.47;;
49458;SDS011;35354;51.296;16.924;2022-09-17T00:31:06;3.88;;;3.53;;
49458;SDS011;35354;51.296;16.924;2022-09-17T00:33:33;6.25;;;3.92;;
49458;SDS011;35354;51.296;16.924;2022-09-17T00:35:59;4.35;;;3.95;;
49458;SDS011;35354;51.296;16.924;2022-09-17T00:38:26;4.97;;;3.90;;
49458;SDS011;35354;51.296;16.924;2022-09-17T00:40:52;4.50;;;4.00;;
49458;SDS011;35354;51.296;16.924;2022-09-17T00:46:07;6.85;;;4.30;;
49458;SDS011;35354;51.296;16.924;2022-09-17T00:48:39;5.63;;;3.72;;
49458;SDS011;35354;51.296;16.924;2022-09-17T00:51:05;7.40;;;4.13;;
49458;SDS011;35354;51.296;16.924;2022-09-17T00:53:34;5.30;;;4.05;;
49458;SDS011;35354;51.296;16.924;2022-09-17T00:56:02;4.57;;;4.07;;
49458;SDS011;35354;51.296;16.924;2022-09-17T00:58:32;4.78;;;3.72;;
49458;SDS011;35354;51.296;16.924;2022-09-17T01:01:00;4.78;;;3.67;;
49458;SDS011;35354;51.296;16.924;2022-09-17T01:03:26;4.82;;;3.92;;
49458;SDS011;35354;51.296;16.924;2022-09-17T01:11:20;10.75;;;4.40;;
49458;SDS011;35354;51.296;16.924;2022-09-17T01:16:59;7.78;;;4.30;;
49458;SDS011;35354;51.296;16.924;2022-09-17T01:22:19;6.90;;;4.90;;
49458;SDS011;35354;51.296;16.924;2022-09-17T01:33:16;4.93;;;3.65;;
49458;SDS011;35354;51.296;16.924;2022-09-17T01:38:52;5.70;;;3.80;;
49458;SDS011;35354;51.296;16.924;2022-09-17T01:44:34;4.03;;;3.42;;
49458;SDS011;35354;51.296;16.924;2022-09-17T01:47:14;6.97;;;3.15;;
49458;SDS011;35354;51.296;16.924;2022-09-17T01:49:43;5.53;;;3.25;;
49458;SDS011;35354;51.296;16.924;2022-09-17T01:52:10;6.85;;;3.08;;
49458;SDS011;35354;51.296;16.924;2022-09-17T01:54:40;5.18;;;2.40;;
49458;SDS011;35354;51.296;16.924;2022-09-17T02:08:23;5.15;;;2.40;;
49458;SDS011;35354;51.296;16.924;2022-09-17T02:10:55;7.18;;;2.85;;
49458;SDS011;35354;51.296;16.924;2022-09-17T02:13:57;3.47;;;2.30;;
49458;SDS011;35354;51.296;16.924;2022-09-17T02:16:36;4.57;;;2.63;;
49458;SDS011;35354;51.296;16.924;2022-09-17T02:19:18;5.32;;;2.40;;
49458;SDS011;35354;51.296;16.924;2022-09-17T02:27:43;4.28;;;2.28;;
49458;SDS011;35354;51.296;16.924;2022-09-17T02:30:22;3.45;;;2.55;;
49458;SDS011;35354;51.296;16.924;2022-09-17T02:32:48;4.57;;;2.30;;
49458;SDS011;35354;51.296;16.924;2022-09-17T02:35:14;5.30;;;2.55;;
49458;SDS011;35354;51.296;16.924;2022-09-17T02:37:40;3.35;;;2.38;;
49458;SDS011;35354;51.296;16.924;2022-09-17T02:40:06;4.78;;;2.35;;
49458;SDS011;35354;51.296;16.924;2022-09-17T02:53:18;4.13;;;2.20;;
49458;SDS011;35354;51.296;16.924;2022-09-17T03:04:46;2.72;;;2.15;;
49458;SDS011;35354;51.296;16.924;2022-09-17T03:07:13;7.28;;;2.05;;
49458;SDS011;35354;51.296;16.924;2022-09-17T03:09:41;5.47;;;2.00;;
49458;SDS011;35354;51.296;16.924;2022-09-17T03:12:07;4.32;;;2.03;;
49458;SDS011;35354;51.296;16.924;2022-09-17T03:14:34;7.25;;;2.55;;
49458;SDS011;35354;51.296;16.924;2022-09-17T03:16:59;3.15;;;2.30;;
49458;SDS011;35354;51.296;16.924;2022-09-17T03:19:25;5.57;;;2.47;;
49458;SDS011;35354;51.296;16.924;2022-09-17T03:21:51;3.47;;;2.35;;
49458;SDS011;35354;51.296;16.924;2022-09-17T03:24:17;6.78;;;2.78;;
49458;SDS011;35354;51.296;16.924;2022-09-17T03:26:43;4.97;;;2.10;;
49458;SDS011;35354;51.296;16.924;2022-09-17T03:29:08;5.70;;;2.50;;
49458;SDS011;35354;51.296;16.924;2022-09-17T03:31:33;3.05;;;2.60;;
49458;SDS011;35354;51.296;16.924;2022-09-17T03:33:59;4.30;;;2.47;;
49458;SDS011;35354;51.296;16.924;2022-09-17T03:36:24;4.50;;;2.30;;
49458;SDS011;35354;51.296;16.924;2022-09-17T03:38:55;4.15;;;2.10;;
49458;SDS011;35354;51.296;16.924;2022-09-17T03:41:21;6.10;;;2.70;;
49458;SDS011;35354;51.296;16.924;2022-09-17T03:43:47;8.43;;;2.90;;
49458;SDS011;35354;51.296;16.924;2022-09-17T03:46:13;3.35;;;2.42;;
49458;SDS011;35354;51.296;16.924;2022-09-17T03:48:38;4.82;;;2.55;;
49458;SDS011;35354;51.296;16.924;2022-09-17T03:51:04;4.32;;;2.50;;
49458;SDS011;35354;51.296;16.924;2022-09-17T03:53:30;6.00;;;3.03;;
49458;SDS011;35354;51.296;16.924;2022-09-17T03:55:59;4.82;;;2.60;;
49458;SDS011;35354;51.296;16.924;2022-09-17T03:58:27;5.38;;;2.42;;
49458;SDS011;35354;51.296;16.924;2022-09-17T04:00:54;5.30;;;3.00;;
49458;SDS011;35354;51.296;16.924;2022-09-17T04:03:21;3.03;;;2.40;;
49458;SDS011;35354;51.296;16.924;2022-09-17T04:05:50;5.53;;;2.70;;
49458;SDS011;35354;51.296;16.924;2022-09-17T04:08:15;6.18;;;2.67;;
49458;SDS011;35354;51.296;16.924;2022-09-17T04:10:42;6.88;;;2.78;;
49458;SDS011;35354;51.296;16.924;2022-09-17T04:13:08;5.07;;;2.72;;
49458;SDS011;35354;51.296;16.924;2022-09-17T04:15:34;8.55;;;2.70;;
49458;SDS011;35354;51.296;16.924;2022-09-17T04:18:00;7.00;;;2.92;;
49458;SDS011;35354;51.296;16.924;2022-09-17T04:20:25;3.75;;;2.47;;
49458;SDS011;35354;51.296;16.924;2022-09-17T04:22:52;5.53;;;3.20;;
49458;SDS011;35354;51.296;16.924;2022-09-17T04:25:18;4.32;;;2.72;;
49458;SDS011;35354;51.296;16.924;2022-09-17T04:27:43;4.78;;;3.05;;
49458;SDS011;35354;51.296;16.924;2022-09-17T04:30:09;8.27;;;2.92;;
49458;SDS011;35354;51.296;16.924;2022-09-17T04:32:35;4.75;;;2.97;;
49458;SDS011;35354;51.296;16.924;2022-09-17T04:35:01;4.68;;;2.90;;
49458;SDS011;35354;51.296;16.924;2022-09-17T04:37:26;4.25;;;2.70;;
49458;SDS011;35354;51.296;16.924;2022-09-17T04:39:51;5.18;;;2.72;;
49458;SDS011;35354;51.296;16.924;2022-09-17T04:42:17;5.80;;;2.80;;
49458;SDS011;35354;51.296;16.924;2022-09-17T04:44:42;5.75;;;3.05;;
49458;SDS011;35354;51.296;16.924;2022-09-17T04:47:08;3.88;;;2.83;;
49458;SDS011;35354;51.296;16.924;2022-09-17T04:49:33;3.35;;;2.83;;
49458;SDS011;35354;51.296;16.924;2022-09-17T04:51:59;6.25;;;3.15;;
49458;SDS011;35354;51.296;16.924;2022-09-17T04:54:24;6.18;;;2.92;;
49458;SDS011;35354;51.296;16.924;2022-09-17T04:56:50;3.75;;;2.78;;
49458;SDS011;35354;51.296;16.924;2022-09-17T04:59:16;6.00;;;3.25;;
49458;SDS011;35354;51.296;16.924;2022-09-17T05:01:41;7.68;;;3.33;;
49458;SDS011;35354;51.296;16.924;2022-09-17T05:04:07;5.30;;;2.92;;
49458;SDS011;35354;51.296;16.924;2022-09-17T05:06:33;4.75;;;3.03;;
49458;SDS011;35354;51.296;16.924;2022-09-17T05:08:58;6.95;;;3.00;;
49458;SDS011;35354;51.296;16.924;2022-09-17T05:11:24;4.25;;;3.22;;
49458;SDS011;35354;51.296;16.924;2022-09-17T05:13:49;6.43;;;2.75;;
49458;SDS011;35354;51.296;16.924;2022-09-17T05:16:14;9.05;;;3.17;;
49458;SDS011;35354;51.296;16.924;2022-09-17T05:18:40;9.18;;;3.58;;
49458;SDS011;35354;51.296;16.924;2022-09-17T05:21:05;5.72;;;3.20;;
49458;SDS011;35354;51.296;16.924;2022-09-17T05:23:31;4.47;;;2.83;;
49458;SDS011;35354;51.296;16.924;2022-09-17T05:25:56;6.25;;;3.40;;
49458;SDS011;35354;51.296;16.924;2022-09-17T05:28:24;5.72;;;3.58;;
49458;SDS011;35354;51.296;16.924;2022-09-17T05:30:49;5.63;;;3.42;;
49458;SDS011;35354;51.296;16.924;2022-09-17T05:33:14;5.80;;;3.33;;
49458;SDS011;35354;51.296;16.924;2022-09-17T05:35:40;7.28;;;3.88;;
49458;SDS011;35354;51.296;16.924;2022-09-17T05:38:07;5.80;;;3.45;;
49458;SDS011;35354;51.296;16.924;2022-09-17T05:40:32;8.57;;;2.80;;
49458;SDS011;35354;51.296;16.924;2022-09-17T05:43:01;7.55;;;3.33;;
49458;SDS011;35354;51.296;16.924;2022-09-17T05:45:28;6.25;;;3.38;;
49458;SDS011;35354;51.296;16.924;2022-09-17T05:47:57;7.10;;;3.72;;
49458;SDS011;35354;51.296;16.924;2022-09-17T05:50:24;8.90;;;3.45;;
49458;SDS011;35354;51.296;16.924;2022-09-17T05:52:51;4.60;;;2.95;;
49458;SDS011;35354;51.296;16.924;2022-09-17T05:55:17;7.93;;;2.95;;
49458;SDS011;35354;51.296;16.924;2022-09-17T05:57:43;6.80;;;3.63;;
49458;SDS011;35354;51.296;16.924;2022-09-17T06:00:09;4.10;;;3.03;;
49458;SDS011;35354;51.296;16.924;2022-09-17T06:02:35;5.40;;;3.47;;
49458;SDS011;35354;51.296;16.924;2022-09-17T06:05:01;7.63;;;3.83;;
49458;SDS011;35354;51.296;16.924;2022-09-17T06:07:27;12.20;;;3.70;;
49458;SDS011;35354;51.296;16.924;2022-09-17T06:09:53;8.05;;;3.50;;
49458;SDS011;35354;51.296;16.924;2022-09-17T06:12:18;6.20;;;3.65;;
49458;SDS011;35354;51.296;16.924;2022-09-17T06:14:44;7.97;;;3.80;;
49458;SDS011;35354;51.296;16.924;2022-09-17T06:17:09;6.28;;;3.38;;
49458;SDS011;35354;51.296;16.924;2022-09-17T06:19:34;6.47;;;3.90;;
49458;SDS011;35354;51.296;16.924;2022-09-17T06:22:00;8.55;;;3.83;;
49458;SDS011;35354;51.296;16.924;2022-09-17T06:24:25;7.88;;;4.05;;
49458;SDS011;35354;51.296;16.924;2022-09-17T06:26:51;7.05;;;4.00;;
49458;SDS011;35354;51.296;16.924;2022-09-17T06:29:17;10.52;;;4.38;;
49458;SDS011;35354;51.296;16.924;2022-09-17T06:31:43;12.57;;;4.95;;
49458;SDS011;35354;51.296;16.924;2022-09-17T06:34:08;12.02;;;4.88;;
49458;SDS011;35354;51.296;16.924;2022-09-17T06:36:34;10.10;;;4.95;;
49458;SDS011;35354;51.296;16.924;2022-09-17T06:38:59;11.68;;;4.85;;
49458;SDS011;35354;51.296;16.924;2022-09-17T06:41:25;8.82;;;4.40;;
49458;SDS011;35354;51.296;16.924;2022-09-17T06:43:51;10.15;;;4.43;;
49458;SDS011;35354;51.296;16.924;2022-09-17T06:46:18;6.75;;;4.00;;
49458;SDS011;35354;51.296;16.924;2022-09-17T06:48:44;5.68;;;3.85;;
49458;SDS011;35354;51.296;16.924;2022-09-17T06:51:09;10.07;;;3.97;;
49458;SDS011;35354;51.296;16.924;2022-09-17T06:53:35;5.72;;;3.63;;
49458;SDS011;35354;51.296;16.924;2022-09-17T06:56:02;6.40;;;3.20;;
49458;SDS011;35354;51.296;16.924;2022-09-17T06:58:28;5.40;;;3.40;;
49458;SDS011;35354;51.296;16.924;2022-09-17T07:00:58;6.30;;;3.55;;
49458;SDS011;35354;51.296;16.924;2022-09-17T07:03:25;7.88;;;3.97;;
49458;SDS011;35354;51.296;16.924;2022-09-17T07:05:51;8.80;;;3.47;;
49458;SDS011;35354;51.296;16.924;2022-09-17T07:08:16;4.78;;;3.13;;
49458;SDS011;35354;51.296;16.924;2022-09-17T07:10:42;7.50;;;3.60;;
49458;SDS011;35354;51.296;16.924;2022-09-17T07:13:07;6.53;;;3.60;;
49458;SDS011;35354;51.296;16.924;2022-09-17T07:15:32;7.97;;;3.85;;
49458;SDS011;35354;51.296;16.924;2022-09-17T07:17:58;7.32;;;3.47;;
49458;SDS011;35354;51.296;16.924;2022-09-17T07:20:23;5.57;;;3.15;;
49458;SDS011;35354;51.296;16.924;2022-09-17T07:22:55;7.13;;;3.10;;
49458;SDS011;35354;51.296;16.924;2022-09-17T07:25:22;6.35;;;3.83;;
49458;SDS011;35354;51.296;16.924;2022-09-17T07:27:48;5.72;;;3.22;;
49458;SDS011;35354;51.296;16.924;2022-09-17T07:30:14;6.20;;;3.20;;
49458;SDS011;35354;51.296;16.924;2022-09-17T07:32:39;5.10;;;3.30;;
49458;SDS011;35354;51.296;16.924;2022-09-17T07:35:05;4.45;;;3.30;;
49458;SDS011;35354;51.296;16.924;2022-09-17T07:37:30;6.32;;;3.25;;
49458;SDS011;35354;51.296;16.924;2022-09-17T07:39:55;6.35;;;3.40;;
49458;SDS011;35354;51.296;16.924;2022-09-17T07:42:21;3.85;;;2.80;;
49458;SDS011;35354;51.296;16.924;2022-09-17T07:44:46;12.05;;;3.90;;
49458;SDS011;35354;51.296;16.924;2022-09-17T07:47:11;7.03;;;3.28;;
49458;SDS011;35354;51.296;16.924;2022-09-17T07:49:37;7.93;;;3.80;;
49458;SDS011;35354;51.296;16.924;2022-09-17T07:52:02;6.20;;;4.00;;
49458;SDS011;35354;51.296;16.924;2022-09-17T07:54:30;7.78;;;3.72;;
49458;SDS011;35354;51.296;16.924;2022-09-17T07:56:56;8.50;;;3.55;;
49458;SDS011;35354;51.296;16.924;2022-09-17T07:59:21;4.90;;;2.90;;
49458;SDS011;35354;51.296;16.924;2022-09-17T08:01:47;5.18;;;3.10;;
49458;SDS011;35354;51.296;16.924;2022-09-17T08:04:12;7.10;;;3.35;;
49458;SDS011;35354;51.296;16.924;2022-09-17T08:06:38;4.40;;;3.55;;
49458;SDS011;35354;51.296;16.924;2022-09-17T08:09:05;7.50;;;3.80;;
49458;SDS011;35354;51.296;16.924;2022-09-17T08:11:31;8.73;;;4.20;;
49458;SDS011;35354;51.296;16.924;2022-09-17T08:13:58;7.05;;;3.67;;
49458;SDS011;35354;51.296;16.924;2022-09-17T08:16:23;6.40;;;3.60;;
49458;SDS011;35354;51.296;16.924;2022-09-17T08:18:53;9.25;;;3.88;;
49458;SDS011;35354;51.296;16.924;2022-09-17T08:21:20;5.93;;;3.60;;
49458;SDS011;35354;51.296;16.924;2022-09-17T08:23:45;6.97;;;3.40;;
49458;SDS011;35354;51.296;16.924;2022-09-17T08:26:12;5.00;;;3.55;;
49458;SDS011;35354;51.296;16.924;2022-09-17T08:28:38;7.20;;;3.83;;
49458;SDS011;35354;51.296;16.924;2022-09-17T08:31:05;8.00;;;4.45;;
49458;SDS011;35354;51.296;16.924;2022-09-17T08:33:35;6.40;;;3.13;;
49458;SDS011;35354;51.296;16.924;2022-09-17T08:36:02;10.05;;;4.13;;
49458;SDS011;35354;51.296;16.924;2022-09-17T08:38:29;5.00;;;3.30;;
49458;SDS011;35354;51.296;16.924;2022-09-17T08:46:32;6.55;;;3.80;;
49458;SDS011;35354;51.296;16.924;2022-09-17T09:00:45;6.40;;;3.60;;
49458;SDS011;35354;51.296;16.924;2022-09-17T09:06:02;6.45;;;3.80;;
49458;SDS011;35354;51.296;16.924;2022-09-17T09:08:29;5.60;;;3.65;;
49458;SDS011;35354;51.296;16.924;2022-09-17T09:11:21;5.20;;;3.70;;
49458;SDS011;35354;51.296;16.924;2022-09-17T09:13:52;7.57;;;4.03;;
49458;SDS011;35354;51.296;16.924;2022-09-17T09:16:23;7.32;;;3.85;;
49458;SDS011;35354;51.296;16.924;2022-09-17T09:18:54;6.38;;;3.97;;
49458;SDS011;35354;51.296;16.924;2022-09-17T09:23:53;7.47;;;3.80;;
49458;SDS011;35354;51.296;16.924;2022-09-17T09:26:44;4.97;;;3.80;;
49458;SDS011;35354;51.296;16.924;2022-09-17T09:35:10;8.02;;;4.75;;
49458;SDS011;35354;51.296;16.924;2022-09-17T09:40:40;6.70;;;4.25;;
49458;SDS011;35354;51.296;16.924;2022-09-17T09:43:17;6.10;;;4.22;;
49458;SDS011;35354;51.296;16.924;2022-09-17T09:51:09;20.15;;;18.02;;
49458;SDS011;35354;51.296;16.924;2022-09-17T09:59:29;16.00;;;12.07;;
49458;SDS011;35354;51.296;16.924;2022-09-17T10:01:54;35.35;;;23.27;;
49458;SDS011;35354;51.296;16.924;2022-09-17T10:04:23;68.70;;;52.67;;
49458;SDS011;35354;51.296;16.924;2022-09-17T10:09:30;21.48;;;19.15;;
49458;SDS011;35354;51.296;16.924;2022-09-17T10:14:35;8.52;;;6.25;;
49458;SDS011;35354;51.296;16.924;2022-09-17T10:19:43;7.63;;;4.78;;
49458;SDS011;35354;51.296;16.924;2022-09-17T10:24:55;7.10;;;4.80;;
49458;SDS011;35354;51.296;16.924;2022-09-17T10:27:23;5.00;;;4.50;;
49458;SDS011;35354;51.296;16.924;2022-09-17T10:30:02;8.57;;;5.53;;
49458;SDS011;35354;51.296;16.924;2022-09-17T10:32:39;9.65;;;5.05;;
49458;SDS011;35354;51.296;16.924;2022-09-17T10:35:05;9.32;;;5.70;;
49458;SDS011;35354;51.296;16.924;2022-09-17T10:37:50;9.77;;;5.43;;
49458;SDS011;35354;51.296;16.924;2022-09-17T10:42:42;7.03;;;4.45;;
49458;SDS011;35354;51.296;16.924;2022-09-17T10:45:11;9.38;;;6.57;;
49458;SDS011;35354;51.296;16.924;2022-09-17T10:47:49;34.28;;;21.00;;
49458;SDS011;35354;51.296;16.924;2022-09-17T10:52:45;24.38;;;19.30;;
49458;SDS011;35354;51.296;16.924;2022-09-17T11:12:14;6.53;;;4.15;;
49458;SDS011;35354;51.296;16.924;2022-09-17T11:14:49;4.40;;;3.30;;
49458;SDS011;35354;51.296;16.924;2022-09-17T11:25:37;6.70;;;3.80;;
49458;SDS011;35354;51.296;16.924;2022-09-17T11:30:53;5.30;;;3.50;;
49458;SDS011;35354;51.296;16.924;2022-09-17T11:36:09;4.13;;;3.40;;
49458;SDS011;35354;51.296;16.924;2022-09-17T11:38:41;10.90;;;6.15;;
49458;SDS011;35354;51.296;16.924;2022-09-17T11:41:13;16.38;;;10.50;;
49458;SDS011;35354;51.296;16.924;2022-09-17T11:46:33;6.78;;;3.67;;
49458;SDS011;35354;51.296;16.924;2022-09-17T11:52:13;68.63;;;40.97;;
49458;SDS011;35354;51.296;16.924;2022-09-17T11:55:05;32.65;;;22.02;;
49458;SDS011;35354;51.296;16.924;2022-09-17T11:57:34;9.63;;;8.63;;
49458;SDS011;35354;51.296;16.924;2022-09-17T12:00:13;4.32;;;3.22;;
49458;SDS011;35354;51.296;16.924;2022-09-17T12:05:17;6.32;;;4.03;;
49458;SDS011;35354;51.296;16.924;2022-09-17T12:10:47;9.30;;;3.30;;
49458;SDS011;35354;51.296;16.924;2022-09-17T12:15:48;6.00;;;3.72;;
49458;SDS011;35354;51.296;16.924;2022-09-17T12:18:31;5.50;;;3.63;;
49458;SDS011;35354;51.296;16.924;2022-09-17T12:21:00;11.35;;;5.25;;
49458;SDS011;35354;51.296;16.924;2022-09-17T12:23:40;4.67;;;3.23;;
49458;SDS011;35354;51.296;16.924;2022-09-17T12:34:56;7.32;;;3.78;;
49458;SDS011;35354;51.296;16.924;2022-09-17T12:37:26;3.88;;;2.70;;
49458;SDS011;35354;51.296;16.924;2022-09-17T12:40:20;16.65;;;6.72;;
49458;SDS011;35354;51.296;16.924;2022-09-17T12:43:08;4.88;;;2.67;;
49458;SDS011;35354;51.296;16.924;2022-09-17T12:56:51;3.47;;;2.03;;
49458;SDS011;35354;51.296;16.924;2022-09-17T12:59:47;3.30;;;1.92;;
49458;SDS011;35354;51.296;16.924;2022-09-17T13:02:26;3.78;;;1.73;;
49458;SDS011;35354;51.296;16.924;2022-09-17T13:05:06;3.72;;;2.30;;
49458;SDS011;35354;51.296;16.924;2022-09-17T13:21:41;4.75;;;3.40;;
49458;SDS011;35354;51.296;16.924;2022-09-17T13:24:16;8.18;;;6.13;;
49458;SDS011;35354;51.296;16.924;2022-09-17T13:26:44;5.53;;;3.72;;
49458;SDS011;35354;51.296;16.924;2022-09-17T13:29:11;5.07;;;3.20;;
49458;SDS011;35354;51.296;16.924;2022-09-17T13:34:03;4.57;;;2.90;;
49458;SDS011;35354;51.296;16.924;2022-09-17T13:42:02;4.32;;;2.40;;
49458;SDS011;35354;51.296;16.924;2022-09-17T13:44:35;4.60;;;2.83;;
49458;SDS011;35354;51.296;16.924;2022-09-17T13:47:12;4.70;;;3.03;;
49458;SDS011;35354;51.296;16.924;2022-09-17T13:50:02;5.03;;;3.08;;
49458;SDS011;35354;51.296;16.924;2022-09-17T13:55:06;4.13;;;2.72;;
49458;SDS011;35354;51.296;16.924;2022-09-17T13:57:43;7.03;;;3.38;;
49458;SDS011;35354;51.296;16.924;2022-09-17T14:00:45;5.88;;;3.47;;
49458;SDS011;35354;51.296;16.924;2022-09-17T14:11:35;8.07;;;5.22;;
49458;SDS011;35354;51.296;16.924;2022-09-17T14:13:53;7.60;;;4.20;;
49458;SDS011;35354;51.296;16.924;2022-09-17T14:21:39;4.55;;;3.60;;
49458;SDS011;35354;51.296;16.924;2022-09-17T14:24:21;3.92;;;3.05;;
49458;SDS011;35354;51.296;16.924;2022-09-17T14:32:23;3.67;;;2.63;;
49458;SDS011;35354;51.296;16.924;2022-09-17T14:34:56;5.40;;;2.55;;
49458;SDS011;35354;51.296;16.924;2022-09-17T14:37:23;7.65;;;4.13;;
49458;SDS011;35354;51.296;16.924;2022-09-17T14:39:49;5.93;;;3.20;;
49458;SDS011;35354;51.296;16.924;2022-09-17T14:42:18;3.65;;;2.47;;
49458;SDS011;35354;51.296;16.924;2022-09-17T14:44:58;5.95;;;3.00;;
49458;SDS011;35354;51.296;16.924;2022-09-17T14:47:26;4.75;;;2.67;;
49458;SDS011;35354;51.296;16.924;2022-09-17T14:49:52;5.32;;;3.53;;
49458;SDS011;35354;51.296;16.924;2022-09-17T14:52:22;10.57;;;6.53;;
49458;SDS011;35354;51.296;16.924;2022-09-17T14:57:51;8.75;;;6.07;;
49458;SDS011;35354;51.296;16.924;2022-09-17T15:00:25;13.90;;;10.40;;
49458;SDS011;35354;51.296;16.924;2022-09-17T15:02:57;4.22;;;2.83;;
49458;SDS011;35354;51.296;16.924;2022-09-17T15:05:24;2.95;;;2.17;;
49458;SDS011;35354;51.296;16.924;2022-09-17T15:08:17;3.53;;;2.05;;
49458;SDS011;35354;51.296;16.924;2022-09-17T15:10:46;5.85;;;2.83;;
49458;SDS011;35354;51.296;16.924;2022-09-17T15:13:14;7.65;;;2.92;;
49458;SDS011;35354;51.296;16.924;2022-09-17T15:15:52;7.30;;;3.42;;
49458;SDS011;35354;51.296;16.924;2022-09-17T15:18:20;3.92;;;2.80;;
49458;SDS011;35354;51.296;16.924;2022-09-17T15:20:54;5.65;;;2.78;;
49458;SDS011;35354;51.296;16.924;2022-09-17T15:23:23;5.70;;;3.40;;
49458;SDS011;35354;51.296;16.924;2022-09-17T15:25:52;5.32;;;3.75;;
49458;SDS011;35354;51.296;16.924;2022-09-17T15:28:28;6.97;;;3.60;;
49458;SDS011;35354;51.296;16.924;2022-09-17T15:30:59;8.63;;;3.78;;
49458;SDS011;35354;51.296;16.924;2022-09-17T15:33:25;4.13;;;3.10;;
49458;SDS011;35354;51.296;16.924;2022-09-17T15:35:58;5.97;;;3.75;;
49458;SDS011;35354;51.296;16.924;2022-09-17T15:38:27;5.82;;;2.22;;
49458;SDS011;35354;51.296;16.924;2022-09-17T15:40:53;3.97;;;2.65;;
49458;SDS011;35354;51.296;16.924;2022-09-17T15:43:38;3.25;;;2.03;;
49458;SDS011;35354;51.296;16.924;2022-09-17T15:48:46;13.20;;;9.88;;
49458;SDS011;35354;51.296;16.924;2022-09-17T15:51:22;9.27;;;5.07;;
49458;SDS011;35354;51.296;16.924;2022-09-17T15:53:51;4.80;;;2.72;;
49458;SDS011;35354;51.296;16.924;2022-09-17T15:59:01;5.45;;;2.55;;
49458;SDS011;35354;51.296;16.924;2022-09-17T16:08:51;3.72;;;2.42;;
49458;SDS011;35354;51.296;16.924;2022-09-17T16:11:22;7.07;;;2.72;;
49458;SDS011;35354;51.296;16.924;2022-09-17T16:13:53;4.93;;;2.50;;
49458;SDS011;35354;51.296;16.924;2022-09-17T16:16:21;5.25;;;2.63;;
49458;SDS011;35354;51.296;16.924;2022-09-17T16:18:49;5.07;;;2.65;;
49458;SDS011;35354;51.296;16.924;2022-09-17T16:21:15;6.47;;;3.95;;
49458;SDS011;35354;51.296;16.924;2022-09-17T16:23:42;50.45;;;31.20;;
49458;SDS011;35354;51.296;16.924;2022-09-17T16:26:09;70.07;;;46.80;;
49458;SDS011;35354;51.296;16.924;2022-09-17T16:28:39;39.47;;;29.05;;
49458;SDS011;35354;51.296;16.924;2022-09-17T16:31:05;30.77;;;22.60;;
49458;SDS011;35354;51.296;16.924;2022-09-17T16:33:31;14.10;;;10.57;;
49458;SDS011;35354;51.296;16.924;2022-09-17T16:35:57;10.35;;;5.68;;
49458;SDS011;35354;51.296;16.924;2022-09-17T16:38:23;7.75;;;5.72;;
49458;SDS011;35354;51.296;16.924;2022-09-17T16:40:49;14.70;;;10.60;;
49458;SDS011;35354;51.296;16.924;2022-09-17T16:43:16;25.05;;;17.70;;
49458;SDS011;35354;51.296;16.924;2022-09-17T16:45:43;13.27;;;10.73;;
49458;SDS011;35354;51.296;16.924;2022-09-17T16:48:21;10.13;;;7.50;;
49458;SDS011;35354;51.296;16.924;2022-09-17T16:50:47;8.82;;;6.72;;
49458;SDS011;35354;51.296;16.924;2022-09-17T16:53:12;10.23;;;7.93;;
49458;SDS011;35354;51.296;16.924;2022-09-17T16:55:38;11.27;;;8.55;;
49458;SDS011;35354;51.296;16.924;2022-09-17T16:58:03;6.80;;;5.10;;
49458;SDS011;35354;51.296;16.924;2022-09-17T17:00:29;6.47;;;5.65;;
49458;SDS011;35354;51.296;16.924;2022-09-17T17:02:55;7.40;;;5.03;;
49458;SDS011;35354;51.296;16.924;2022-09-17T17:05:22;8.52;;;5.13;;
49458;SDS011;35354;51.296;16.924;2022-09-17T17:07:48;7.75;;;3.97;;
49458;SDS011;35354;51.296;16.924;2022-09-17T17:10:14;8.93;;;4.30;;
49458;SDS011;35354;51.296;16.924;2022-09-17T17:12:40;6.38;;;3.50;;
49458;SDS011;35354;51.296;16.924;2022-09-17T17:15:05;7.97;;;4.75;;
49458;SDS011;35354;51.296;16.924;2022-09-17T17:17:31;40.50;;;22.80;;
49458;SDS011;35354;51.296;16.924;2022-09-17T17:19:59;33.65;;;18.92;;
49458;SDS011;35354;51.296;16.924;2022-09-17T17:22:25;34.72;;;18.88;;
49458;SDS011;35354;51.296;16.924;2022-09-17T17:24:50;27.95;;;17.58;;
49458;SDS011;35354;51.296;16.924;2022-09-17T17:27:16;25.05;;;13.75;;
49458;SDS011;35354;51.296;16.924;2022-09-17T17:29:41;20.15;;;10.98;;
49458;SDS011;35354;51.296;16.924;2022-09-17T17:32:06;37.78;;;25.20;;
49458;SDS011;35354;51.296;16.924;2022-09-17T17:34:32;29.67;;;21.58;;
49458;SDS011;35354;51.296;16.924;2022-09-17T17:36:58;21.45;;;17.67;;
49458;SDS011;35354;51.296;16.924;2022-09-17T17:39:23;9.30;;;6.45;;
49458;SDS011;35354;51.296;16.924;2022-09-17T17:41:49;11.23;;;5.32;;
49458;SDS011;35354;51.296;16.924;2022-09-17T17:44:14;9.98;;;5.50;;
49458;SDS011;35354;51.296;16.924;2022-09-17T17:46:40;11.80;;;5.72;;
49458;SDS011;35354;51.296;16.924;2022-09-17T17:49:05;9.18;;;6.18;;
49458;SDS011;35354;51.296;16.924;2022-09-17T17:51:32;7.18;;;4.85;;
49458;SDS011;35354;51.296;16.924;2022-09-17T17:53:58;10.48;;;5.45;;
49458;SDS011;35354;51.296;16.924;2022-09-17T17:56:23;9.57;;;4.93;;
49458;SDS011;35354;51.296;16.924;2022-09-17T17:58:52;7.43;;;4.07;;
49458;SDS011;35354;51.296;16.924;2022-09-17T18:01:21;6.63;;;3.35;;
49458;SDS011;35354;51.296;16.924;2022-09-17T18:03:48;9.23;;;3.50;;
49458;SDS011;35354;51.296;16.924;2022-09-17T18:06:13;6.10;;;3.53;;
49458;SDS011;35354;51.296;16.924;2022-09-17T18:08:40;6.63;;;4.35;;
49458;SDS011;35354;51.296;16.924;2022-09-17T18:11:07;5.35;;;3.20;;
49458;SDS011;35354;51.296;16.924;2022-09-17T18:13:34;7.25;;;3.25;;
49458;SDS011;35354;51.296;16.924;2022-09-17T18:16:00;6.97;;;3.35;;
49458;SDS011;35354;51.296;16.924;2022-09-17T18:18:36;6.30;;;3.45;;
49458;SDS011;35354;51.296;16.924;2022-09-17T18:21:03;7.40;;;3.10;;
49458;SDS011;35354;51.296;16.924;2022-09-17T18:23:32;6.40;;;2.30;;
49458;SDS011;35354;51.296;16.924;2022-09-17T18:25:59;4.05;;;2.47;;
49458;SDS011;35354;51.296;16.924;2022-09-17T18:28:26;5.90;;;2.92;;
49458;SDS011;35354;51.296;16.924;2022-09-17T18:30:53;6.78;;;3.28;;
49458;SDS011;35354;51.296;16.924;2022-09-17T18:33:20;6.75;;;3.60;;
49458;SDS011;35354;51.296;16.924;2022-09-17T18:35:48;7.65;;;3.50;;
49458;SDS011;35354;51.296;16.924;2022-09-17T18:38:14;5.05;;;3.05;;
49458;SDS011;35354;51.296;16.924;2022-09-17T18:40:40;7.30;;;2.97;;
49458;SDS011;35354;51.296;16.924;2022-09-17T18:43:06;6.35;;;2.67;;
49458;SDS011;35354;51.296;16.924;2022-09-17T18:45:32;6.45;;;2.65;;
49458;SDS011;35354;51.296;16.924;2022-09-17T18:47:57;7.65;;;2.90;;
49458;SDS011;35354;51.296;16.924;2022-09-17T18:50:22;3.78;;;2.35;;